sensor_id;sensor_type;location;lat;lon;timestamp;pressure;altitude;pressure_sealevel;temperature;humidity
10064;BME280;5071;52.360;13.134;2022-07-04T00:03:08;101076.53;;;21.03;61.07
10064;BME280;5071;52.360;13.134;2022-07-04T00:08:10;101072.66;;;20.91;61.86
10064;BME280;5071;52.360;13.134;2022-07-04T00:13:12;101062.38;;;20.81;61.70
10064;BME280;5071;52.360;13.134;2022-07-04T00:18:15;101057.22;;;20.76;61.84
10064;BME280;5071;52.360;13.134;2022-07-04T00:23:17;101038.81;;;20.67;62.81
10064;BME280;5071;52.360;13.134;2022-07-04T00:28:19;101047.91;;;20.64;62.36
10064;BME280;5071;52.360;13.134;2022-07-04T00:33:23;101058.25;;;20.54;62.85
10064;BME280;5071;52.360;13.134;2022-07-04T00:38:25;101070.66;;;20.39;63.75
10064;BME280;5071;52.360;13.134;2022-07-04T00:43:28;101078.44;;;20.27;64.76
10064;BME280;5071;52.360;13.134;2022-07-04T00:48:32;101065.03;;;20.06;65.85
10064;BME280;5071;52.360;13.134;2022-07-04T00:53:34;101085.56;;;19.90;66.64
10064;BME280;5071;52.360;13.134;2022-07-04T00:58:37;101096.88;;;19.77;67.43
10064;BME280;5071;52.360;13.134;2022-07-04T01:03:41;101111.81;;;19.64;68.73
10064;BME280;5071;52.360;13.134;2022-07-04T01:08:43;101116.81;;;19.53;68.95
10064;BME280;5071;52.360;13.134;2022-07-04T01:13:45;101124.47;;;19.41;70.56
10064;BME280;5071;52.360;13.134;2022-07-04T01:18:48;101118.69;;;19.30;71.18
10064;BME280;5071;52.360;13.134;2022-07-04T01:23:52;101121.34;;;19.10;72.01
10064;BME280;5071;52.360;13.134;2022-07-04T01:28:55;101130.06;;;18.94;72.82
10064;BME280;5071;52.360;13.134;2022-07-04T01:33:57;101129.25;;;18.92;73.42
10064;BME280;5071;52.360;13.134;2022-07-04T01:39:02;101155.44;;;18.87;73.61
10064;BME280;5071;52.360;13.134;2022-07-04T01:44:04;101155.22;;;18.70;75.15
10064;BME280;5071;52.360;13.134;2022-07-04T01:49:06;101161.06;;;18.57;75.93
10064;BME280;5071;52.360;13.134;2022-07-04T01:54:10;101158.63;;;18.51;76.88
10064;BME280;5071;52.360;13.134;2022-07-04T01:59:12;101165.56;;;18.33;77.36
10064;BME280;5071;52.360;13.134;2022-07-04T02:04:14;101166.56;;;18.31;78.06
10064;BME280;5071;52.360;13.134;2022-07-04T02:09:17;101182.84;;;18.26;78.20
10064;BME280;5071;52.360;13.134;2022-07-04T02:14:19;101174.31;;;18.15;79.05
10064;BME280;5071;52.360;13.134;2022-07-04T02:19:21;101186.97;;;18.11;79.33
10064;BME280;5071;52.360;13.134;2022-07-04T02:24:25;101189.31;;;17.97;79.59
10064;BME280;5071;52.360;13.134;2022-07-04T02:29:27;101189.19;;;18.00;79.80
10064;BME280;5071;52.360;13.134;2022-07-04T02:34:30;101186.00;;;17.88;80.13
10064;BME280;5071;52.360;13.134;2022-07-04T02:39:33;101187.97;;;17.83;80.36
10064;BME280;5071;52.360;13.134;2022-07-04T02:44:35;101186.66;;;17.70;80.60
10064;BME280;5071;52.360;13.134;2022-07-04T02:49:38;101168.88;;;17.66;80.74
10064;BME280;5071;52.360;13.134;2022-07-04T02:54:41;101183.19;;;17.66;81.18
10064;BME280;5071;52.360;13.134;2022-07-04T02:59:44;101183.34;;;17.62;80.97
10064;BME280;5071;52.360;13.134;2022-07-04T03:04:46;101210.31;;;17.59;80.83
10064;BME280;5071;52.360;13.134;2022-07-04T03:09:50;101203.25;;;17.55;81.21
10064;BME280;5071;52.360;13.134;2022-07-04T03:14:52;101208.53;;;17.58;81.03
10064;BME280;5071;52.360;13.134;2022-07-04T03:19:54;101210.50;;;17.53;81.37
10064;BME280;5071;52.360;13.134;2022-07-04T03:24:57;101217.72;;;17.51;81.15
10064;BME280;5071;52.360;13.134;2022-07-04T03:29:59;101223.25;;;17.46;81.17
10064;BME280;5071;52.360;13.134;2022-07-04T03:35:02;101230.41;;;17.45;81.48
10064;BME280;5071;52.360;13.134;2022-07-04T03:40:06;101234.81;;;17.48;81.17
10064;BME280;5071;52.360;13.134;2022-07-04T03:45:10;101239.69;;;17.35;81.47
10064;BME280;5071;52.360;13.134;2022-07-04T03:50:12;101263.50;;;17.46;81.01
10064;BME280;5071;52.360;13.134;2022-07-04T03:55:15;101269.72;;;17.48;81.01
10064;BME280;5071;52.360;13.134;2022-07-04T04:00:18;101269.44;;;17.56;80.53
10064;BME280;5071;52.360;13.134;2022-07-04T04:05:19;101282.81;;;17.57;80.57
10064;BME280;5071;52.360;13.134;2022-07-04T04:10:23;101290.47;;;17.69;80.09
10064;BME280;5071;52.360;13.134;2022-07-04T04:15:25;101278.59;;;17.77;79.47
10064;BME280;5071;52.360;13.134;2022-07-04T04:20:27;101279.47;;;17.77;79.00
10064;BME280;5071;52.360;13.134;2022-07-04T04:25:31;101288.69;;;17.97;78.44
10064;BME280;5071;52.360;13.134;2022-07-04T04:30:33;101291.59;;;18.66;76.21
10064;BME280;5071;52.360;13.134;2022-07-04T04:35:35;101295.47;;;20.57;67.67
10064;BME280;5071;52.360;13.134;2022-07-04T04:40:38;101307.47;;;21.66;63.96
10064;BME280;5071;52.360;13.134;2022-07-04T04:45:41;101307.75;;;22.48;59.95
10064;BME280;5071;52.360;13.134;2022-07-04T04:50:43;101308.44;;;22.36;59.71
10064;BME280;5071;52.360;13.134;2022-07-04T04:55:48;101322.47;;;23.11;58.37
10064;BME280;5071;52.360;13.134;2022-07-04T05:00:50;101314.50;;;23.40;56.50
10064;BME280;5071;52.360;13.134;2022-07-04T05:06:12;101317.25;;;24.02;53.87
10064;BME280;5071;52.360;13.134;2022-07-04T05:11:16;101319.66;;;23.60;55.24
10064;BME280;5071;52.360;13.134;2022-07-04T05:16:17;101321.84;;;22.03;59.73
10064;BME280;5071;52.360;13.134;2022-07-04T05:21:19;101345.19;;;21.50;63.20
10064;BME280;5071;52.360;13.134;2022-07-04T05:26:24;101358.63;;;23.10;56.77
10064;BME280;5071;52.360;13.134;2022-07-04T05:31:27;101369.81;;;23.20;55.31
10064;BME280;5071;52.360;13.134;2022-07-04T05:36:29;101362.59;;;21.81;58.85
10064;BME280;5071;52.360;13.134;2022-07-04T05:41:33;101368.22;;;21.19;60.57
10064;BME280;5071;52.360;13.134;2022-07-04T05:46:35;101369.69;;;22.37;59.28
10064;BME280;5071;52.360;13.134;2022-07-04T05:51:37;101362.25;;;24.36;51.97
10064;BME280;5071;52.360;13.134;2022-07-04T05:56:40;101367.06;;;23.85;53.11
10064;BME280;5071;52.360;13.134;2022-07-04T06:01:43;101365.69;;;22.79;54.59
10064;BME280;5071;52.360;13.134;2022-07-04T06:06:45;101372.19;;;23.42;52.81
10064;BME280;5071;52.360;13.134;2022-07-04T06:11:48;101383.81;;;23.76;51.12
10064;BME280;5071;52.360;13.134;2022-07-04T06:16:50;101379.56;;;23.72;50.09
10064;BME280;5071;52.360;13.134;2022-07-04T06:21:53;101387.75;;;24.48;49.55
10064;BME280;5071;52.360;13.134;2022-07-04T06:26:57;101390.09;;;24.24;49.02
10064;BME280;5071;52.360;13.134;2022-07-04T06:31:58;101403.00;;;24.04;48.88
10064;BME280;5071;52.360;13.134;2022-07-04T06:37:00;101407.34;;;23.59;51.58
10064;BME280;5071;52.360;13.134;2022-07-04T06:42:04;101404.22;;;24.15;48.51
10064;BME280;5071;52.360;13.134;2022-07-04T06:47:06;101418.91;;;24.11;48.35
10064;BME280;5071;52.360;13.134;2022-07-04T06:52:09;101423.91;;;24.49;47.71
10064;BME280;5071;52.360;13.134;2022-07-04T06:57:12;101420.22;;;23.56;50.28
10064;BME280;5071;52.360;13.134;2022-07-04T07:02:34;101420.94;;;24.07;49.40
10064;BME280;5071;52.360;13.134;2022-07-04T07:07:36;101417.84;;;25.04;47.93
10064;BME280;5071;52.360;13.134;2022-07-04T07:12:40;101418.63;;;26.72;44.13
10064;BME280;5071;52.360;13.134;2022-07-04T07:17:44;101420.59;;;25.47;47.00
10064;BME280;5071;52.360;13.134;2022-07-04T07:22:48;101419.41;;;25.08;46.14
10064;BME280;5071;52.360;13.134;2022-07-04T07:27:51;101418.16;;;23.27;50.98
10064;BME280;5071;52.360;13.134;2022-07-04T07:32:53;101425.94;;;22.83;50.38
10064;BME280;5071;52.360;13.134;2022-07-04T07:37:55;101419.94;;;22.94;49.95
10064;BME280;5071;52.360;13.134;2022-07-04T07:42:58;101429.97;;;22.91;52.13
10064;BME280;5071;52.360;13.134;2022-07-04T07:48:00;101427.69;;;22.66;51.55
10064;BME280;5071;52.360;13.134;2022-07-04T07:53:02;101429.47;;;22.13;53.05
10064;BME280;5071;52.360;13.134;2022-07-04T07:58:06;101434.00;;;21.94;53.02
10064;BME280;5071;52.360;13.134;2022-07-04T08:03:08;101441.13;;;21.78;53.85
10064;BME280;5071;52.360;13.134;2022-07-04T08:08:10;101453.59;;;21.99;53.52
10064;BME280;5071;52.360;13.134;2022-07-04T08:13:13;101455.13;;;22.94;51.85
10064;BME280;5071;52.360;13.134;2022-07-04T08:18:15;101453.63;;;25.83;43.79
10064;BME280;5071;52.360;13.134;2022-07-04T08:23:17;101458.91;;;25.28;44.00
10064;BME280;5071;52.360;13.134;2022-07-04T08:28:21;101453.53;;;26.26;41.80
10064;BME280;5071;52.360;13.134;2022-07-04T08:33:23;101443.84;;;25.94;44.05
10064;BME280;5071;52.360;13.134;2022-07-04T08:38:26;101452.31;;;27.10;38.91
10064;BME280;5071;52.360;13.134;2022-07-04T08:43:30;101446.41;;;26.37;41.22
10064;BME280;5071;52.360;13.134;2022-07-04T08:48:33;101449.19;;;25.96;42.16
10064;BME280;5071;52.360;13.134;2022-07-04T08:53:37;101437.03;;;26.82;40.03
10064;BME280;5071;52.360;13.134;2022-07-04T08:58:41;101454.69;;;27.79;39.45
10064;BME280;5071;52.360;13.134;2022-07-04T09:03:45;101451.47;;;29.17;35.18
10064;BME280;5071;52.360;13.134;2022-07-04T09:08:47;101462.00;;;29.10;34.25
10064;BME280;5071;52.360;13.134;2022-07-04T09:13:50;101447.00;;;29.61;33.95
10064;BME280;5071;52.360;13.134;2022-07-04T09:18:53;101449.94;;;31.00;32.16
10064;BME280;5071;52.360;13.134;2022-07-04T09:23:55;101447.75;;;30.29;33.48
10064;BME280;5071;52.360;13.134;2022-07-04T09:28:58;101449.81;;;30.48;31.26
10064;BME280;5071;52.360;13.134;2022-07-04T09:34:01;101450.44;;;31.46;30.63
10064;BME280;5071;52.360;13.134;2022-07-04T09:39:11;101448.59;;;31.46;30.63
10064;BME280;5071;52.360;13.134;2022-07-04T09:44:14;101455.31;;;31.32;31.49
10064;BME280;5071;52.360;13.134;2022-07-04T09:49:16;101465.41;;;30.69;31.72
10064;BME280;5071;52.360;13.134;2022-07-04T09:54:22;101457.84;;;30.93;31.07
10064;BME280;5071;52.360;13.134;2022-07-04T09:59:26;101460.09;;;32.11;29.88
10064;BME280;5071;52.360;13.134;2022-07-04T10:04:41;101441.91;;;28.16;34.87
10064;BME280;5071;52.360;13.134;2022-07-04T10:09:43;101454.53;;;25.83;39.57
10064;BME280;5071;52.360;13.134;2022-07-04T10:14:47;101455.22;;;24.24;42.63
10064;BME280;5071;52.360;13.134;2022-07-04T10:19:49;101450.41;;;23.81;44.69
10064;BME280;5071;52.360;13.134;2022-07-04T10:24:51;101445.53;;;23.39;43.82
10064;BME280;5071;52.360;13.134;2022-07-04T10:29:55;101448.69;;;27.73;35.33
10064;BME280;5071;52.360;13.134;2022-07-04T10:34:58;101445.16;;;27.84;35.01
10064;BME280;5071;52.360;13.134;2022-07-04T10:40:00;101433.41;;;29.03;34.87
10064;BME280;5071;52.360;13.134;2022-07-04T10:45:03;101423.47;;;29.02;33.49
10064;BME280;5071;52.360;13.134;2022-07-04T10:50:06;101435.69;;;27.90;36.03
10064;BME280;5071;52.360;13.134;2022-07-04T10:55:11;101430.31;;;27.00;36.15
10064;BME280;5071;52.360;13.134;2022-07-04T11:00:14;101422.78;;;24.97;39.52
10064;BME280;5071;52.360;13.134;2022-07-04T11:05:16;101423.63;;;24.98;39.95
10064;BME280;5071;52.360;13.134;2022-07-04T11:10:32;101415.69;;;24.80;41.74
10064;BME280;5071;52.360;13.134;2022-07-04T11:16:06;101411.53;;;25.03;41.51
10064;BME280;5071;52.360;13.134;2022-07-04T11:21:23;101402.72;;;25.43;39.95
10064;BME280;5071;52.360;13.134;2022-07-04T11:26:25;101405.22;;;25.03;42.71
10064;BME280;5071;52.360;13.134;2022-07-04T11:31:43;101402.63;;;25.45;40.15
10064;BME280;5071;52.360;13.134;2022-07-04T11:36:46;101402.56;;;26.15;38.13
10064;BME280;5071;52.360;13.134;2022-07-04T11:41:50;101387.16;;;25.45;39.37
10064;BME280;5071;52.360;13.134;2022-07-04T11:47:06;101389.69;;;25.48;39.52
10064;BME280;5071;52.360;13.134;2022-07-04T11:52:08;101389.16;;;26.12;39.47
10064;BME280;5071;52.360;13.134;2022-07-04T11:57:19;101390.78;;;25.87;38.94
10064;BME280;5071;52.360;13.134;2022-07-04T12:02:23;101385.81;;;24.80;40.86
10064;BME280;5071;52.360;13.134;2022-07-04T12:07:27;101378.50;;;26.22;38.80
10064;BME280;5071;52.360;13.134;2022-07-04T12:12:29;101383.97;;;26.87;37.33
10064;BME280;5071;52.360;13.134;2022-07-04T12:17:34;101373.72;;;26.65;37.09
10064;BME280;5071;52.360;13.134;2022-07-04T12:22:39;101374.50;;;26.93;35.83
10064;BME280;5071;52.360;13.134;2022-07-04T12:27:41;101366.44;;;26.91;36.67
10064;BME280;5071;52.360;13.134;2022-07-04T12:32:49;101372.78;;;26.92;37.52
10064;BME280;5071;52.360;13.134;2022-07-04T12:38:00;101369.50;;;26.21;36.71
10064;BME280;5071;52.360;13.134;2022-07-04T12:43:02;101367.75;;;25.22;38.43
10064;BME280;5071;52.360;13.134;2022-07-04T12:48:14;101352.31;;;25.93;37.78
10064;BME280;5071;52.360;13.134;2022-07-04T12:53:16;101357.84;;;26.72;35.72
10064;BME280;5071;52.360;13.134;2022-07-04T12:58:18;101360.63;;;26.57;35.58
10064;BME280;5071;52.360;13.134;2022-07-04T13:03:22;101360.91;;;26.67;35.50
10064;BME280;5071;52.360;13.134;2022-07-04T13:08:24;101359.13;;;26.13;35.11
10064;BME280;5071;52.360;13.134;2022-07-04T13:13:26;101353.13;;;26.61;35.24
10064;BME280;5071;52.360;13.134;2022-07-04T13:18:30;101358.88;;;27.21;34.60
10064;BME280;5071;52.360;13.134;2022-07-04T13:23:31;101354.88;;;26.62;33.74
10064;BME280;5071;52.360;13.134;2022-07-04T13:28:33;101356.16;;;27.46;33.38
10064;BME280;5071;52.360;13.134;2022-07-04T13:33:37;101361.13;;;27.52;32.22
10064;BME280;5071;52.360;13.134;2022-07-04T13:38:39;101355.00;;;27.62;33.02
10064;BME280;5071;52.360;13.134;2022-07-04T13:44:02;101361.22;;;26.75;33.54
10064;BME280;5071;52.360;13.134;2022-07-04T13:49:05;101356.44;;;27.54;32.08
10064;BME280;5071;52.360;13.134;2022-07-04T13:54:14;101354.06;;;27.74;32.25
10064;BME280;5071;52.360;13.134;2022-07-04T13:59:16;101368.53;;;27.63;32.21
10064;BME280;5071;52.360;13.134;2022-07-04T14:04:19;101357.06;;;26.83;33.01
10064;BME280;5071;52.360;13.134;2022-07-04T14:09:21;101357.06;;;26.95;32.94
10064;BME280;5071;52.360;13.134;2022-07-04T14:14:22;101363.59;;;27.19;32.28
10064;BME280;5071;52.360;13.134;2022-07-04T14:19:26;101365.88;;;27.12;31.92
10064;BME280;5071;52.360;13.134;2022-07-04T14:24:27;101346.19;;;26.83;32.51
10064;BME280;5071;52.360;13.134;2022-07-04T14:29:29;101354.00;;;27.00;32.54
10064;BME280;5071;52.360;13.134;2022-07-04T14:34:32;101347.22;;;27.44;31.92
10064;BME280;5071;52.360;13.134;2022-07-04T14:39:34;101332.56;;;27.45;32.87
10064;BME280;5071;52.360;13.134;2022-07-04T14:44:36;101336.31;;;27.44;32.31
10064;BME280;5071;52.360;13.134;2022-07-04T14:49:39;101323.06;;;27.01;33.26
10064;BME280;5071;52.360;13.134;2022-07-04T14:54:41;101325.22;;;27.22;33.31
10064;BME280;5071;52.360;13.134;2022-07-04T14:59:43;101321.06;;;27.29;32.22
10064;BME280;5071;52.360;13.134;2022-07-04T15:04:46;101323.72;;;27.54;31.94
10064;BME280;5071;52.360;13.134;2022-07-04T15:09:48;101323.28;;;27.72;31.23
10064;BME280;5071;52.360;13.134;2022-07-04T15:14:50;101323.34;;;27.22;33.20
10064;BME280;5071;52.360;13.134;2022-07-04T15:19:53;101309.44;;;27.51;31.55
10064;BME280;5071;52.360;13.134;2022-07-04T15:24:55;101309.56;;;27.73;31.38
10064;BME280;5071;52.360;13.134;2022-07-04T15:29:57;101313.94;;;26.64;33.81
10064;BME280;5071;52.360;13.134;2022-07-04T15:35:00;101306.47;;;26.27;33.09
10064;BME280;5071;52.360;13.134;2022-07-04T15:40:15;101299.69;;;27.23;31.89
10064;BME280;5071;52.360;13.134;2022-07-04T15:45:17;101299.69;;;27.23;31.52
10064;BME280;5071;52.360;13.134;2022-07-04T15:50:20;101299.06;;;27.06;31.62
10064;BME280;5071;52.360;13.134;2022-07-04T15:55:22;101287.06;;;27.22;32.53
10064;BME280;5071;52.360;13.134;2022-07-04T16:00:25;101286.75;;;26.88;32.39
10064;BME280;5071;52.360;13.134;2022-07-04T16:05:28;101292.56;;;26.45;32.25
10064;BME280;5071;52.360;13.134;2022-07-04T16:10:30;101284.09;;;26.75;33.06
10064;BME280;5071;52.360;13.134;2022-07-04T16:15:32;101284.69;;;26.91;32.21
10064;BME280;5071;52.360;13.134;2022-07-04T16:20:35;101281.00;;;26.41;34.47
10064;BME280;5071;52.360;13.134;2022-07-04T16:25:37;101269.53;;;27.00;31.03
10064;BME280;5071;52.360;13.134;2022-07-04T16:30:40;101277.72;;;27.00;32.40
10064;BME280;5071;52.360;13.134;2022-07-04T16:35:43;101267.91;;;26.98;31.20
10064;BME280;5071;52.360;13.134;2022-07-04T16:40:45;101261.81;;;26.43;34.12
10064;BME280;5071;52.360;13.134;2022-07-04T16:45:46;101259.66;;;25.82;34.76
10064;BME280;5071;52.360;13.134;2022-07-04T16:50:50;101260.22;;;26.79;32.09
10064;BME280;5071;52.360;13.134;2022-07-04T16:55:52;101265.25;;;27.22;32.80
10064;BME280;5071;52.360;13.134;2022-07-04T17:00:54;101268.97;;;27.08;32.76
10064;BME280;5071;52.360;13.134;2022-07-04T17:05:57;101271.41;;;26.87;30.68
10064;BME280;5071;52.360;13.134;2022-07-04T17:10:59;101274.25;;;26.72;31.95
10064;BME280;5071;52.360;13.134;2022-07-04T17:16:01;101284.28;;;26.85;31.85
10064;BME280;5071;52.360;13.134;2022-07-04T17:21:05;101281.63;;;27.09;31.21
10064;BME280;5071;52.360;13.134;2022-07-04T17:26:06;101283.78;;;27.17;32.32
10064;BME280;5071;52.360;13.134;2022-07-04T17:31:09;101282.97;;;26.90;32.69
10064;BME280;5071;52.360;13.134;2022-07-04T17:36:12;101277.19;;;26.56;33.60
10064;BME280;5071;52.360;13.134;2022-07-04T17:41:13;101275.69;;;26.65;31.71
10064;BME280;5071;52.360;13.134;2022-07-04T17:46:15;101281.66;;;26.45;31.83
10064;BME280;5071;52.360;13.134;2022-07-04T17:51:18;101278.94;;;26.70;32.33
10064;BME280;5071;52.360;13.134;2022-07-04T17:56:20;101280.25;;;26.39;31.97
10064;BME280;5071;52.360;13.134;2022-07-04T18:01:23;101281.31;;;26.49;32.25
10064;BME280;5071;52.360;13.134;2022-07-04T18:06:26;101279.16;;;26.42;31.43
10064;BME280;5071;52.360;13.134;2022-07-04T18:11:28;101277.09;;;26.45;33.25
10064;BME280;5071;52.360;13.134;2022-07-04T18:16:30;101277.94;;;25.80;32.02
10064;BME280;5071;52.360;13.134;2022-07-04T18:21:33;101271.53;;;25.27;32.42
10064;BME280;5071;52.360;13.134;2022-07-04T18:26:35;101287.22;;;25.36;32.39
10064;BME280;5071;52.360;13.134;2022-07-04T18:31:37;101277.78;;;25.69;34.18
10064;BME280;5071;52.360;13.134;2022-07-04T18:36:40;101288.72;;;25.54;33.84
10064;BME280;5071;52.360;13.134;2022-07-04T18:41:42;101289.16;;;25.34;34.00
10064;BME280;5071;52.360;13.134;2022-07-04T18:46:44;101288.41;;;25.03;35.24
10064;BME280;5071;52.360;13.134;2022-07-04T18:51:47;101284.56;;;24.64;35.51
10064;BME280;5071;52.360;13.134;2022-07-04T18:56:49;101296.47;;;24.17;35.87
10064;BME280;5071;52.360;13.134;2022-07-04T19:01:51;101314.78;;;23.83;36.89
10064;BME280;5071;52.360;13.134;2022-07-04T19:06:55;101310.75;;;23.42;38.00
10064;BME280;5071;52.360;13.134;2022-07-04T19:11:57;101320.53;;;23.13;38.48
10064;BME280;5071;52.360;13.134;2022-07-04T19:16:59;101331.22;;;22.99;39.49
10064;BME280;5071;52.360;13.134;2022-07-04T19:22:02;101331.22;;;22.65;41.63
10064;BME280;5071;52.360;13.134;2022-07-04T19:27:05;101333.84;;;21.97;44.57
10064;BME280;5071;52.360;13.134;2022-07-04T19:32:07;101338.91;;;21.49;46.30
10064;BME280;5071;52.360;13.134;2022-07-04T19:37:10;101340.63;;;21.12;47.34
10064;BME280;5071;52.360;13.134;2022-07-04T19:42:13;101337.09;;;20.72;47.98
10064;BME280;5071;52.360;13.134;2022-07-04T19:47:15;101337.94;;;20.32;49.24
10064;BME280;5071;52.360;13.134;2022-07-04T19:52:19;101341.06;;;20.00;50.27
10064;BME280;5071;52.360;13.134;2022-07-04T19:57:21;101356.47;;;19.76;51.87
10064;BME280;5071;52.360;13.134;2022-07-04T20:02:23;101355.50;;;19.54;51.14
10064;BME280;5071;52.360;13.134;2022-07-04T20:07:28;101355.50;;;19.32;53.48
10064;BME280;5071;52.360;13.134;2022-07-04T20:12:29;101354.44;;;19.12;54.31
10064;BME280;5071;52.360;13.134;2022-07-04T20:17:32;101348.34;;;18.83;54.53
10064;BME280;5071;52.360;13.134;2022-07-04T20:22:36;101348.22;;;18.61;55.57
10064;BME280;5071;52.360;13.134;2022-07-04T20:27:38;101360.63;;;18.40;56.34
10064;BME280;5071;52.360;13.134;2022-07-04T20:32:40;101357.59;;;18.24;56.72
10064;BME280;5071;52.360;13.134;2022-07-04T20:37:45;101368.53;;;18.18;57.30
10064;BME280;5071;52.360;13.134;2022-07-04T20:42:47;101369.03;;;18.04;57.74
10064;BME280;5071;52.360;13.134;2022-07-04T20:47:49;101374.19;;;17.82;57.89
10064;BME280;5071;52.360;13.134;2022-07-04T20:52:52;101362.47;;;17.57;58.39
10064;BME280;5071;52.360;13.134;2022-07-04T20:57:54;101363.06;;;17.38;58.50
10064;BME280;5071;52.360;13.134;2022-07-04T21:02:56;101364.53;;;17.19;59.81
10064;BME280;5071;52.360;13.134;2022-07-04T21:07:59;101378.22;;;17.09;60.77
10064;BME280;5071;52.360;13.134;2022-07-04T21:13:02;101378.59;;;16.97;60.90
10064;BME280;5071;52.360;13.134;2022-07-04T21:18:04;101389.56;;;16.88;60.84
10064;BME280;5071;52.360;13.134;2022-07-04T21:23:07;101404.91;;;16.83;62.04
10064;BME280;5071;52.360;13.134;2022-07-04T21:28:09;101407.78;;;16.74;60.25
10064;BME280;5071;52.360;13.134;2022-07-04T21:33:10;101413.50;;;16.61;61.55
10064;BME280;5071;52.360;13.134;2022-07-04T21:38:13;101419.91;;;16.56;61.89
10064;BME280;5071;52.360;13.134;2022-07-04T21:43:16;101424.78;;;16.40;62.13
10064;BME280;5071;52.360;13.134;2022-07-04T21:48:17;101426.06;;;16.23;62.71
10064;BME280;5071;52.360;13.134;2022-07-04T21:53:21;101434.44;;;16.11;63.72
10064;BME280;5071;52.360;13.134;2022-07-04T21:58:23;101434.50;;;16.08;63.53
10064;BME280;5071;52.360;13.134;2022-07-04T22:03:25;101447.41;;;15.90;63.58
10064;BME280;5071;52.360;13.134;2022-07-04T22:08:28;101452.13;;;15.79;63.86
10064;BME280;5071;52.360;13.134;2022-07-04T22:13:31;101448.78;;;15.68;65.01
10064;BME280;5071;52.360;13.134;2022-07-04T22:18:33;101460.28;;;15.73;64.23
10064;BME280;5071;52.360;13.134;2022-07-04T22:23:36;101451.59;;;15.62;64.62
10064;BME280;5071;52.360;13.134;2022-07-04T22:28:38;101447.28;;;15.54;65.06
10064;BME280;5071;52.360;13.134;2022-07-04T22:33:40;101443.06;;;15.43;64.70
10064;BME280;5071;52.360;13.134;2022-07-04T22:38:43;101432.94;;;15.16;65.68
10064;BME280;5071;52.360;13.134;2022-07-04T22:43:45;101436.03;;;14.93;67.24
10064;BME280;5071;52.360;13.134;2022-07-04T22:48:47;101431.53;;;14.97;66.77
10064;BME280;5071;52.360;13.134;2022-07-04T22:53:50;101435.13;;;14.96;66.45
10064;BME280;5071;52.360;13.134;2022-07-04T22:58:52;101428.03;;;14.92;66.21
10064;BME280;5071;52.360;13.134;2022-07-04T23:03:55;101426.53;;;14.78;67.53
10064;BME280;5071;52.360;13.134;2022-07-04T23:08:59;101426.84;;;14.60;67.57
10064;BME280;5071;52.360;13.134;2022-07-04T23:14:00;101430.44;;;14.59;68.18
10064;BME280;5071;52.360;13.134;2022-07-04T23:19:02;101437.63;;;14.54;68.51
10064;BME280;5071;52.360;13.134;2022-07-04T23:24:06;101441.16;;;14.56;68.68
10064;BME280;5071;52.360;13.134;2022-07-04T23:29:08;101435.88;;;14.53;68.23
10064;BME280;5071;52.360;13.134;2022-07-04T23:34:10;101442.25;;;14.44;68.43
10064;BME280;5071;52.360;13.134;2022-07-04T23:39:13;101440.75;;;14.28;68.90
10064;BME280;5071;52.360;13.134;2022-07-04T23:44:15;101423.31;;;14.05;69.72
10064;BME280;5071;52.360;13.134;2022-07-04T23:49:17;101423.28;;;14.07;69.94
10064;BME280;5071;52.360;13.134;2022-07-04T23:54:21;101429.63;;;13.99;70.42
10064;BME280;5071;52.360;13.134;2022-07-04T23:59:22;101428.00;;;13.89;69.64
